Time;durP1;ratioP1;P1;durP2;ratioP2;P2;SDS_P1;SDS_P2;PMS_P1;PMS_P2;Temp;Humidity;BMP_temperature;BMP_pressure;BME280_temperature;BME280_humidity;BME280_pressure;Samples;Min_cycle;Max_cycle;Signal;HPM_P1;HPM_P2
2021/09/27 00:00:26;;;;;;;15.18;12.32;;;19.10;99.90;;;;;;5146850;28;20168;-63
2021/09/27 00:02:52;;;;;;;21.95;12.50;;;19.20;99.90;;;;;;5146379;28;20162;-63
2021/09/27 00:05:19;;;;;;;18.85;12.70;;;19.10;99.90;;;;;;5128352;28;20177;-63
2021/09/27 00:07:45;;;;;;;20.80;13.25;;;19.00;99.90;;;;;;5146703;28;20162;-63
2021/09/27 00:10:16;;;;;;;19.70;15.13;;;19.00;99.90;;;;;;5146791;28;20266;-63
2021/09/27 00:12:42;;;;;;;20.55;14.15;;;18.90;99.90;;;;;;5145999;28;20162;-63
2021/09/27 00:15:14;;;;;;;29.88;13.38;;;18.90;99.90;;;;;;5146816;28;20214;-63
2021/09/27 00:17:40;;;;;;;23.13;14.20;;;18.70;99.90;;;;;;5146697;28;20166;-63
2021/09/27 00:20:07;;;;;;;19.25;14.02;;;18.80;99.90;;;;;;5146696;28;20187;-63
2021/09/27 00:22:33;;;;;;;17.45;13.70;;;18.80;99.90;;;;;;5146684;28;20162;-63
2021/09/27 00:24:59;;;;;;;21.77;14.60;;;18.90;99.90;;;;;;5146433;28;20204;-63
2021/09/27 00:27:24;;;;;;;22.70;14.23;;;18.80;99.90;;;;;;5146382;28;20165;-63
2021/09/27 00:29:50;;;;;;;20.08;13.80;;;18.50;99.90;;;;;;5146644;27;20531;-63
2021/09/27 00:32:17;;;;;;;18.15;13.77;;;18.40;99.90;;;;;;5150067;27;20200;-63
2021/09/27 00:34:43;;;;;;;22.13;14.23;;;18.50;99.90;;;;;;5150527;27;20660;-63
2021/09/27 00:37:08;;;;;;;24.48;15.30;;;18.60;99.90;;;;;;5150670;27;20165;-63
2021/09/27 00:39:34;;;;;;;22.88;15.27;;;18.80;99.90;;;;;;5150451;27;20176;-63
2021/09/27 00:41:59;;;;;;;21.13;15.05;;;18.70;99.90;;;;;;5150461;27;20166;-63
2021/09/27 00:44:25;;;;;;;27.95;14.85;;;18.60;99.90;;;;;;5149814;27;20177;-63
2021/09/27 00:46:53;;;;;;;23.33;15.65;;;18.20;99.90;;;;;;5150443;27;20325;-63
2021/09/27 00:49:19;;;;;;;19.75;14.77;;;18.20;99.90;;;;;;5150231;27;20154;-63
2021/09/27 00:51:45;;;;;;;24.10;15.52;;;18.00;99.90;;;;;;5150304;27;20183;-63
2021/09/27 00:54:18;;;;;;;19.85;14.40;;;18.20;99.90;;;;;;5149852;27;20475;-63
2021/09/27 00:56:51;;;;;;;24.58;15.77;;;18.10;99.90;;;;;;5150286;27;20518;-63
2021/09/27 00:59:18;;;;;;;20.30;15.40;;;18.30;99.90;;;;;;5149791;27;20166;-63
2021/09/27 01:01:44;;;;;;;21.15;15.57;;;18.20;99.90;;;;;;5149941;27;20162;-63
2021/09/27 01:04:11;;;;;;;27.38;16.38;;;18.00;99.90;;;;;;5149689;27;20269;-63
2021/09/27 01:07:07;;;;;;;25.13;16.50;;;18.00;99.90;;;;;;5150101;27;20218;-63
2021/09/27 01:10:02;;;;;;;21.92;15.85;;;18.10;99.90;;;;;;5149113;27;20174;-63
2021/09/27 01:12:55;;;;;;;29.60;17.17;;;18.20;99.90;;;;;;5127606;27;20190;-63
2021/09/27 01:15:42;;;;;;;19.02;16.77;;;18.20;99.90;;;;;;5149862;27;20646;-63
2021/09/27 01:18:29;;;;;;;21.92;17.05;;;18.20;99.90;;;;;;5149905;27;20170;-63
2021/09/27 01:21:30;;;;;;;21.27;17.73;;;18.20;99.90;;;;;;5149992;27;20181;-63
2021/09/27 01:24:18;;;;;;;27.67;18.33;;;18.30;99.90;;;;;;5149397;27;20181;-63
2021/09/27 01:27:06;;;;;;;28.23;17.50;;;18.20;99.90;;;;;;5149860;27;20154;-63
2021/09/27 01:29:58;;;;;;;31.45;19.75;;;18.40;99.90;;;;;;5149054;27;20182;-63
2021/09/27 01:32:52;;;;;;;24.92;18.45;;;18.30;99.90;;;;;;5149636;27;20166;-63
2021/09/27 01:35:46;;;;;;;25.35;18.75;;;18.10;99.90;;;;;;5145993;27;20185;-63
2021/09/27 01:38:28;;;;;;;28.38;18.60;;;18.00;99.90;;;;;;5149416;27;20169;-63
2021/09/27 01:41:03;;;;;;;29.33;18.52;;;18.30;99.90;;;;;;5149739;27;20148;-63
2021/09/27 01:43:55;;;;;;;29.25;17.80;;;18.30;99.90;;;;;;5147546;27;20173;-63
2021/09/27 01:46:31;;;;;;;29.65;19.05;;;18.40;99.90;;;;;;5149234;27;20146;-63
2021/09/27 01:49:04;;;;;;;24.35;17.15;;;18.20;99.90;;;;;;5149234;27;20186;-63
2021/09/27 01:51:56;;;;;;;23.25;16.65;;;18.30;99.90;;;;;;5130971;27;20169;-63
2021/09/27 01:54:38;;;;;;;25.45;18.55;;;18.20;99.90;;;;;;5149071;27;20256;-63
2021/09/27 01:57:37;;;;;;;30.55;19.15;;;18.40;99.90;;;;;;5149353;27;20150;-63
2021/09/27 02:00:06;;;;;;;25.52;18.80;;;18.50;99.90;;;;;;5149312;27;20160;-63
2021/09/27 02:03:01;;;;;;;33.50;18.48;;;18.40;99.90;;;;;;5149051;27;20607;-63
2021/09/27 02:05:35;;;;;;;30.60;17.77;;;18.50;99.90;;;;;;5045468;28;20209;-63
2021/09/27 02:08:22;;;;;;;30.98;17.80;;;18.40;99.90;;;;;;5045474;28;20727;-63
2021/09/27 02:11:07;;;;;;;27.10;18.38;;;18.50;99.90;;;;;;5045326;28;20296;-62
2021/09/27 02:13:36;;;;;;;33.00;19.30;;;18.50;99.90;;;;;;5028175;28;20313;-63
2021/09/27 02:16:31;;;;;;;24.67;18.30;;;18.40;99.90;;;;;;5045294;28;20178;-63
2021/09/27 02:19:41;;;;;;;26.30;18.80;;;18.40;99.90;;;;;;5034839;28;20173;-63
2021/09/27 02:22:47;;;;;;;31.83;18.85;;;18.50;99.90;;;;;;5025144;28;20185;-63
2021/09/27 02:25:43;;;;;;;28.05;18.73;;;18.50;99.90;;;;;;5041038;28;20256;-63
2021/09/27 02:28:15;;;;;;;26.75;18.70;;;18.30;99.90;;;;;;5028687;28;20188;-63
2021/09/27 02:31:04;;;;;;;26.65;18.60;;;18.10;99.90;;;;;;5045061;28;20248;-63
2021/09/27 02:33:49;;;;;;;27.58;18.73;;;18.00;99.90;;;;;;5044743;28;20181;-63
2021/09/27 02:36:42;;;;;;;31.85;19.05;;;18.10;99.90;;;;;;5045116;28;20185;-63
2021/09/27 02:39:31;;;;;;;30.27;19.17;;;18.10;99.90;;;;;;5044976;28;20199;-63
2021/09/27 02:42:07;;;;;;;37.00;20.52;;;18.30;99.90;;;;;;5075468;27;20614;-63
2021/09/27 02:44:33;;;;;;;33.60;20.92;;;18.40;99.90;;;;;;5147789;27;20181;-63
2021/09/27 02:46:59;;;;;;;35.83;20.95;;;18.30;99.90;;;;;;5148407;27;20614;-63
2021/09/27 02:49:31;;;;;;;33.83;20.63;;;18.30;99.90;;;;;;5148150;27;20235;-63
2021/09/27 02:52:00;;;;;;;32.25;19.55;;;18.00;99.90;;;;;;5148408;27;20150;-63
2021/09/27 02:54:43;;;;;;;27.58;18.95;;;18.00;99.90;;;;;;5129207;27;20257;-63
2021/09/27 02:57:25;;;;;;;27.30;19.67;;;17.80;99.90;;;;;;5148249;27;20153;-63
2021/09/27 03:00:46;;;;;;;31.73;19.27;;;17.70;99.90;;;;;;5148096;27;20170;-63
2021/09/27 03:03:42;;;;;;;28.90;19.60;;;18.00;99.90;;;;;;5044104;28;20177;-63
2021/09/27 03:06:17;;;;;;;31.92;19.63;;;18.20;99.90;;;;;;5044695;28;20253;-63
2021/09/27 03:08:57;;;;;;;31.90;20.85;;;18.10;99.90;;;;;;5044307;28;20169;-64
2021/09/27 03:11:54;;;;;;;32.15;20.00;;;18.10;99.90;;;;;;5044278;28;20219;-63
2021/09/27 03:14:22;;;;;;;28.33;20.48;;;18.00;99.90;;;;;;5044165;28;20676;-63
2021/09/27 03:17:01;;;;;;;33.72;21.15;;;18.00;99.90;;;;;;5044323;28;20177;-63
2021/09/27 03:20:01;;;;;;;40.53;21.73;;;18.00;99.90;;;;;;5044186;28;20169;-63
2021/09/27 03:22:46;;;;;;;38.92;23.05;;;18.00;99.90;;;;;;5044277;28;20300;-65
2021/09/27 03:25:33;;;;;;;43.08;24.08;;;18.00;99.90;;;;;;5044025;28;20189;-64
2021/09/27 03:28:20;;;;;;;42.67;25.30;;;18.10;99.90;;;;;;5043886;28;20181;-64
2021/09/27 03:31:10;;;;;;;42.70;24.52;;;18.00;99.90;;;;;;5044223;28;20236;-64
2021/09/27 03:34:05;;;;;;;38.63;24.15;;;18.00;99.90;;;;;;5092144;27;20203;-64
2021/09/27 03:36:59;;;;;;;40.30;23.88;;;17.90;99.90;;;;;;5138637;27;20178;-65
2021/09/27 03:39:56;;;;;;;38.47;23.48;;;17.80;99.90;;;;;;5147446;27;20158;-64
2021/09/27 03:42:31;;;;;;;43.17;24.17;;;18.00;99.90;;;;;;5131907;27;20210;-64
2021/09/27 03:45:11;;;;;;;45.20;25.50;;;18.10;99.90;;;;;;5128766;28;20205;-64
2021/09/27 03:47:50;;;;;;;41.22;23.63;;;18.00;99.90;;;;;;5147486;28;20138;-62
2021/09/27 03:50:30;;;;;;;40.13;23.25;;;17.90;99.90;;;;;;5147537;28;20146;-64
2021/09/27 03:52:58;;;;;;;38.45;24.58;;;17.80;99.90;;;;;;5147256;28;20158;-64
2021/09/27 03:55:45;;;;;;;39.30;22.48;;;17.80;99.90;;;;;;5147023;28;20612;-65
2021/09/27 03:58:17;;;;;;;36.13;21.73;;;17.80;99.90;;;;;;5147014;28;20181;-62
2021/09/27 04:01:06;;;;;;;38.95;22.73;;;17.80;99.90;;;;;;5147245;28;20150;-62
2021/09/27 04:03:34;;;;;;;36.83;23.10;;;17.80;99.90;;;;;;5146715;28;20177;-64
2021/09/27 04:06:09;;;;;;;39.15;23.52;;;18.10;99.90;;;;;;5148883;27;20158;-64
2021/09/27 04:09:15;;;;;;;33.95;23.35;;;18.00;99.90;;;;;;5151321;27;20165;-64
2021/09/27 04:12:31;;;;;;;36.03;23.95;;;18.00;99.90;;;;;;5108588;27;20209;-64
2021/09/27 04:15:14;;;;;;;40.50;23.13;;;17.80;99.90;;;;;;5047537;28;20219;-64
2021/09/27 04:17:57;;;;;;;39.38;23.55;;;17.70;99.90;;;;;;5047440;28;20253;-64
2021/09/27 04:20:44;;;;;;;39.63;22.88;;;17.60;99.90;;;;;;5047675;28;20157;-64
2021/09/27 04:23:37;;;;;;;40.80;25.85;;;17.70;99.90;;;;;;5047068;28;20173;-62
2021/09/27 04:26:33;;;;;;;39.58;25.25;;;17.70;99.90;;;;;;5047211;28;20256;-62
2021/09/27 04:29:01;;;;;;;43.75;27.27;;;17.70;99.90;;;;;;5047056;28;20184;-63
2021/09/27 04:31:44;;;;;;;50.05;27.80;;;17.60;99.90;;;;;;5047337;28;20189;-64
2021/09/27 04:34:31;;;;;;;51.72;27.13;;;17.50;99.90;;;;;;5046904;28;20252;-64
2021/09/27 04:36:59;;;;;;;46.10;27.77;;;17.50;99.90;;;;;;5047391;28;20177;-62
2021/09/27 04:39:28;;;;;;;47.70;28.23;;;17.60;99.90;;;;;;5047285;28;20187;-64
2021/09/27 04:42:19;;;;;;;49.30;28.63;;;17.60;99.90;;;;;;5047216;28;20178;-62
2021/09/27 04:45:11;;;;;;;42.53;27.45;;;17.50;99.90;;;;;;5046701;28;20205;-62
2021/09/27 04:47:42;;;;;;;50.22;28.08;;;17.70;99.90;;;;;;5046998;28;20244;-62
2021/09/27 04:50:29;;;;;;;47.15;28.23;;;17.80;99.90;;;;;;5150332;27;20166;-64
2021/09/27 04:53:12;;;;;;;44.70;27.35;;;17.80;99.90;;;;;;5150308;27;20162;-62
2021/09/27 04:55:45;;;;;;;44.25;28.60;;;17.80;99.90;;;;;;5150347;27;20158;-62
2021/09/27 04:58:34;;;;;;;51.03;28.48;;;17.90;99.90;;;;;;5150037;27;20170;-62
2021/09/27 05:01:24;;;;;;;48.95;27.65;;;17.80;99.90;;;;;;5150248;27;20165;-62
2021/09/27 05:04:16;;;;;;;48.78;29.17;;;17.90;99.90;;;;;;5149632;27;20245;-62
2021/09/27 05:07:03;;;;;;;52.30;29.45;;;17.90;99.90;;;;;;5150144;27;20158;-62
2021/09/27 05:09:38;;;;;;;44.28;27.38;;;17.90;99.90;;;;;;5149977;27;20158;-62
2021/09/27 05:12:50;;;;;;;46.53;27.88;;;17.70;99.90;;;;;;5149890;27;20612;-64
2021/09/27 05:15:33;;;;;;;41.03;26.60;;;17.70;99.90;;;;;;5065952;28;20204;-64
2021/09/27 05:18:08;;;;;;;42.22;26.88;;;17.80;99.90;;;;;;5049273;28;20230;-64
2021/09/27 05:20:46;;;;;;;39.40;26.50;;;17.80;99.90;;;;;;5066098;28;20180;-64
2021/09/27 05:23:33;;;;;;;44.17;28.15;;;18.00;99.90;;;;;;5066019;28;20168;-64
2021/09/27 05:26:27;;;;;;;47.10;28.20;;;18.00;99.90;;;;;;5066048;28;20191;-64
2021/09/27 05:29:16;;;;;;;45.80;28.15;;;18.10;99.90;;;;;;5066016;28;20165;-63
2021/09/27 05:32:04;;;;;;;49.53;27.70;;;18.10;99.90;;;;;;5065575;28;20157;-64
2021/09/27 05:34:48;;;;;;;47.40;28.13;;;18.00;99.90;;;;;;5065085;28;20181;-63
2021/09/27 05:37:16;;;;;;;42.28;27.02;;;18.00;99.90;;;;;;5066010;28;20157;-64
2021/09/27 05:39:44;;;;;;;45.00;28.58;;;18.10;99.90;;;;;;5065660;28;20177;-64
2021/09/27 05:42:35;;;;;;;47.35;27.63;;;18.20;99.90;;;;;;5065963;28;20169;-64
2021/09/27 05:45:05;;;;;;;47.85;27.83;;;18.40;99.90;;;;;;5065255;28;20200;-64
2021/09/27 05:47:34;;;;;;;44.30;27.60;;;18.30;99.90;;;;;;5065902;28;20165;-63
2021/09/27 05:50:29;;;;;;;45.00;26.13;;;18.30;99.90;;;;;;5065549;28;20165;-64
2021/09/27 05:53:10;;;;;;;42.97;27.95;;;18.30;99.90;;;;;;5130406;27;20199;-64
2021/09/27 05:55:50;;;;;;;44.25;25.85;;;18.30;99.90;;;;;;5148928;27;20166;-64
2021/09/27 05:58:44;;;;;;;41.08;25.65;;;18.50;99.90;;;;;;5148871;27;20190;-63
2021/09/27 06:01:30;;;;;;;38.70;25.60;;;18.40;99.90;;;;;;5149017;27;20150;-64
2021/09/27 06:04:44;;;;;;;40.92;25.45;;;18.40;99.90;;;;;;5148776;27;20193;-64
2021/09/27 06:07:34;;;;;;;37.95;23.83;;;18.50;99.90;;;;;;5148887;27;20158;-63
2021/09/27 06:10:29;;;;;;;36.40;23.45;;;18.60;99.90;;;;;;5148122;27;20181;-64
2021/09/27 06:13:26;;;;;;;49.78;22.75;;;18.60;99.90;;;;;;5110833;27;20182;-63
2021/09/27 06:15:58;;;;;;;34.13;21.35;;;18.40;99.90;;;;;;5149031;27;20155;-64
2021/09/27 06:18:49;;;;;;;29.17;21.02;;;18.30;99.90;;;;;;5130078;27;20177;-64
2021/09/27 06:21:18;;;;;;;36.47;20.27;;;18.40;99.90;;;;;;5130305;27;20641;-64
2021/09/27 06:24:10;;;;;;;32.63;20.85;;;18.50;99.90;;;;;;5129987;27;20166;-63
2021/09/27 06:26:44;;;;;;;30.15;20.50;;;18.50;99.90;;;;;;5148680;27;20154;-64
2021/09/27 06:29:26;;;;;;;29.92;19.95;;;18.60;99.90;;;;;;5147437;27;20257;-63
2021/09/27 06:32:06;;;;;;;29.52;20.63;;;18.80;99.90;;;;;;5148482;27;20556;-64
2021/09/27 06:34:41;;;;;;;25.60;18.67;;;18.80;99.90;;;;;;5129714;27;20654;-63
2021/09/27 06:37:07;;;;;;;27.00;18.70;;;18.90;99.90;;;;;;5148658;27;20178;-64
2021/09/27 06:39:33;;;;;;;23.90;16.17;;;18.90;99.90;;;;;;5148449;27;20189;-64
2021/09/27 06:41:59;;;;;;;23.40;16.75;;;18.70;99.90;;;;;;5148443;27;20245;-63
2021/09/27 06:44:25;;;;;;;18.35;16.42;;;18.60;99.90;;;;;;5147479;27;20209;-63
2021/09/27 06:46:53;;;;;;;21.67;17.23;;;18.80;99.90;;;;;;5148308;27;20165;-64
2021/09/27 06:49:19;;;;;;;24.50;16.80;;;18.90;99.90;;;;;;5148017;27;20211;-64
2021/09/27 06:51:44;;;;;;;24.88;17.50;;;18.90;99.90;;;;;;5148199;27;20150;-64
2021/09/27 06:54:15;;;;;;;24.13;17.42;;;18.80;99.90;;;;;;5147742;27;20169;-64
2021/09/27 06:56:42;;;;;;;29.60;17.77;;;18.60;99.90;;;;;;5148140;27;20166;-64
2021/09/27 06:59:08;;;;;;;21.45;16.58;;;18.60;99.90;;;;;;5147609;27;20158;-63
2021/09/27 07:01:34;;;;;;;25.13;15.90;;;18.60;99.90;;;;;;5147976;27;20158;-64
2021/09/27 07:04:00;;;;;;;18.45;14.77;;;18.50;99.90;;;;;;5128951;27;20560;-64
2021/09/27 07:06:26;;;;;;;22.05;13.88;;;18.60;99.90;;;;;;5148029;27;20174;-63
2021/09/27 07:08:52;;;;;;;23.83;14.00;;;18.60;99.90;;;;;;5147835;27;20162;-63
2021/09/27 07:11:18;;;;;;;19.15;14.55;;;18.50;99.90;;;;;;5129164;27;20266;-63
2021/09/27 07:13:44;;;;;;;14.10;12.60;;;18.60;99.90;;;;;;5147269;27;20188;-64
2021/09/27 07:16:10;;;;;;;18.40;12.35;;;18.50;99.90;;;;;;5147878;27;20211;-64
2021/09/27 07:18:37;;;;;;;20.85;12.10;;;18.60;99.90;;;;;;5147608;27;20166;-64
2021/09/27 07:21:05;;;;;;;15.20;12.00;;;18.50;99.90;;;;;;5147697;27;20150;-64
2021/09/27 07:23:37;;;;;;;16.23;11.05;;;18.60;99.90;;;;;;5147269;27;20154;-63
2021/09/27 07:26:04;;;;;;;11.98;10.40;;;18.50;99.90;;;;;;5147758;27;20158;-64
2021/09/27 07:28:29;;;;;;;13.52;10.57;;;18.50;99.90;;;;;;5147315;27;20222;-64
2021/09/27 07:30:55;;;;;;;15.17;10.53;;;18.60;99.90;;;;;;5146670;27;20393;-64
2021/09/27 07:33:20;;;;;;;11.50;10.30;;;18.60;99.90;;;;;;5147412;27;20158;-63
2021/09/27 07:35:46;;;;;;;11.50;8.68;;;18.60;99.90;;;;;;5147280;27;20169;-64
2021/09/27 07:38:12;;;;;;;14.38;9.65;;;18.50;99.90;;;;;;5147385;27;20217;-64
2021/09/27 07:40:39;;;;;;;11.18;9.02;;;18.50;99.90;;;;;;5146542;27;20166;-64
2021/09/27 07:43:06;;;;;;;12.18;9.45;;;18.50;99.90;;;;;;5128454;27;20241;-64
2021/09/27 07:45:35;;;;;;;10.40;8.95;;;18.50;99.90;;;;;;5147205;27;20178;-64
2021/09/27 07:48:03;;;;;;;12.40;8.50;;;18.60;99.90;;;;;;5147355;28;20158;-64
2021/09/27 07:50:30;;;;;;;13.43;8.55;;;18.60;99.90;;;;;;5147372;28;20161;-64
2021/09/27 07:52:56;;;;;;;11.25;8.63;;;18.70;99.90;;;;;;5147301;28;20161;-64
2021/09/27 07:55:22;;;;;;;9.45;8.40;;;18.80;99.90;;;;;;5146957;28;20170;-63
2021/09/27 07:57:48;;;;;;;13.52;8.82;;;18.90;99.90;;;;;;5128659;28;20615;-64
2021/09/27 08:00:15;;;;;;;12.02;8.38;;;19.00;99.90;;;;;;5147128;28;20166;-64
2021/09/27 08:02:42;;;;;;;15.38;8.32;;;19.10;99.90;;;;;;5147110;28;20244;-63
2021/09/27 08:05:11;;;;;;;8.45;7.50;;;18.80;99.90;;;;;;5146935;28;20204;-64
2021/09/27 08:07:37;;;;;;;8.57;7.30;;;18.70;99.90;;;;;;5147119;28;20169;-64
2021/09/27 08:10:06;;;;;;;8.23;7.43;;;18.90;99.90;;;;;;5146979;28;20221;-63
2021/09/27 08:12:31;;;;;;;10.65;7.25;;;19.10;99.90;;;;;;5147145;28;20150;-64
2021/09/27 08:14:58;;;;;;;10.60;7.18;;;19.00;99.90;;;;;;5146535;28;20177;-64
2021/09/27 08:17:23;;;;;;;8.38;6.97;;;18.90;99.90;;;;;;5146971;28;20162;-64
2021/09/27 08:19:49;;;;;;;8.13;7.32;;;19.00;99.90;;;;;;5146916;28;20174;-64
2021/09/27 08:22:15;;;;;;;10.52;7.70;;;18.90;99.90;;;;;;5147137;28;20159;-63
2021/09/27 08:24:41;;;;;;;10.40;7.72;;;19.00;99.90;;;;;;5146712;28;20185;-64
2021/09/27 08:27:07;;;;;;;13.98;8.02;;;18.90;99.90;;;;;;5147078;28;20201;-64
2021/09/27 08:29:33;;;;;;;9.23;7.90;;;18.80;99.90;;;;;;5146531;28;20166;-64
2021/09/27 08:31:58;;;;;;;10.23;6.82;;;18.90;99.90;;;;;;5147235;28;20164;-64
2021/09/27 08:34:24;;;;;;;8.52;7.68;;;18.90;99.90;;;;;;5146584;28;20175;-64
2021/09/27 08:36:51;;;;;;;11.05;7.65;;;18.90;99.90;;;;;;5147037;28;20161;-64
2021/09/27 08:39:16;;;;;;;8.70;7.22;;;19.00;99.90;;;;;;5146757;28;20173;-64
2021/09/27 08:42:11;;;;;;;9.95;7.30;;;19.10;99.90;;;;;;5147065;28;20517;-64
2021/09/27 08:44:43;;;;;;;7.25;6.15;;;19.10;99.90;;;;;;5142978;28;20210;-64
2021/09/27 08:47:31;;;;;;;12.43;6.75;;;19.00;99.90;;;;;;5146923;28;20162;-64
2021/09/27 08:50:23;;;;;;;9.55;7.13;;;19.00;99.90;;;;;;5128235;28;20167;-64
2021/09/27 08:52:48;;;;;;;10.35;6.60;;;19.00;99.90;;;;;;5126008;27;20174;-63
2021/09/27 08:55:14;;;;;;;13.85;7.00;;;19.00;99.90;;;;;;5150233;27;20210;-63
2021/09/27 08:58:24;;;;;;;10.48;6.53;;;19.00;99.90;;;;;;5150647;27;20186;-64
2021/09/27 09:01:00;;;;;;;10.18;6.88;;;19.10;99.90;;;;;;5136424;27;20209;-64
2021/09/27 09:03:37;;;;;;;11.30;6.50;;;19.20;99.90;;;;;;5150315;27;20714;-64
2021/09/27 09:06:31;;;;;;;10.48;6.63;;;19.20;99.90;;;;;;5150331;27;20185;-63
2021/09/27 09:09:19;;;;;;;13.35;7.35;;;19.30;99.90;;;;;;5150121;27;20169;-63
2021/09/27 09:11:48;;;;;;;9.00;5.90;;;19.20;99.90;;;;;;5150067;27;20209;-63
2021/09/27 09:14:42;;;;;;;12.77;5.45;;;19.30;99.90;;;;;;5149571;27;20174;-63
2021/09/27 09:17:31;;;;;;;5.88;5.18;;;19.10;99.90;;;;;;5139891;27;20178;-64
2021/09/27 09:19:57;;;;;;;7.15;5.60;;;19.20;99.90;;;;;;5150114;27;20159;-63
2021/09/27 09:22:33;;;;;;;10.23;5.00;;;19.30;99.90;;;;;;5150028;27;20158;-64
2021/09/27 09:24:59;;;;;;;7.32;4.97;;;19.30;99.90;;;;;;5149604;27;20714;-64
2021/09/27 09:27:25;;;;;;;13.23;5.10;;;19.40;99.90;;;;;;5150133;27;20162;-64
2021/09/27 09:29:51;;;;;;;5.88;4.88;;;19.40;99.90;;;;;;5149517;27;20193;-64
2021/09/27 09:32:22;;;;;;;6.30;5.00;;;19.50;99.90;;;;;;5149672;27;20592;-64
2021/09/27 09:34:51;;;;;;;7.45;5.05;;;19.40;99.90;;;;;;5149534;27;20195;-63
2021/09/27 09:37:36;;;;;;;11.38;4.80;;;19.40;99.90;;;;;;5149814;27;20249;-64
2021/09/27 09:40:05;;;;;;;8.27;4.68;;;19.40;99.90;;;;;;5149523;27;20173;-63
2021/09/27 09:42:34;;;;;;;10.88;5.03;;;19.50;99.90;;;;;;5149548;27;20170;-63
2021/09/27 09:45:18;;;;;;;13.38;4.50;;;19.60;99.90;;;;;;5148839;27;20200;-63
2021/09/27 09:47:44;;;;;;;8.10;3.95;;;19.70;99.90;;;;;;5149531;27;20165;-64
2021/09/27 09:50:21;;;;;;;5.82;4.45;;;19.80;99.90;;;;;;5149421;27;20154;-64
2021/09/27 09:52:53;;;;;;;5.63;4.07;;;19.90;99.90;;;;;;5149407;27;20150;-63
2021/09/27 09:55:51;;;;;;;7.78;4.57;;;19.90;99.90;;;;;;5149061;27;20238;-64
2021/09/27 09:58:46;;;;;;;8.73;4.00;;;20.10;99.90;;;;;;5148834;27;20198;-63
2021/09/27 10:01:22;;;;;;;7.38;3.80;;;20.00;99.90;;;;;;5149213;27;20169;-64
2021/09/27 10:04:10;;;;;;;6.50;3.78;;;20.00;99.90;;;;;;5147819;27;20161;-64
2021/09/27 10:06:36;;;;;;;7.57;3.83;;;20.00;99.90;;;;;;5149061;27;20165;-63
2021/09/27 10:09:07;;;;;;;8.07;4.13;;;20.00;99.90;;;;;;5148828;27;20222;-63
2021/09/27 10:11:35;;;;;;;8.85;3.72;;;20.10;99.90;;;;;;5148981;27;20606;-63
2021/09/27 10:14:18;;;;;;;10.45;4.07;;;20.10;99.90;;;;;;5148250;27;20170;-64
2021/09/27 10:16:51;;;;;;;7.93;3.95;;;20.10;99.90;;;;;;5149008;27;20146;-64
2021/09/27 10:19:31;;;;;;;6.65;3.38;;;20.10;99.90;;;;;;5148317;27;20173;-64
2021/09/27 10:22:05;;;;;;;4.88;3.08;;;20.30;99.90;;;;;;5130473;27;20447;-63
2021/09/27 10:24:37;;;;;;;8.18;3.28;;;20.40;99.90;;;;;;5148517;27;20196;-64
2021/09/27 10:27:10;;;;;;;7.70;3.50;;;20.60;99.90;;;;;;5148905;27;20170;-64
2021/09/27 10:29:36;;;;;;;7.22;3.00;;;20.80;99.90;;;;;;5148262;27;20166;-64
2021/09/27 10:32:34;;;;;;;3.63;3.30;;;21.00;99.90;;;;;;5148714;27;20237;-64
2021/09/27 10:35:07;;;;;;;6.75;2.67;;;21.30;99.90;;;;;;5128067;27;20197;-64
2021/09/27 10:37:33;;;;;;;8.13;2.50;;;21.10;99.90;;;;;;5148678;27;20142;-64
2021/09/27 10:39:59;;;;;;;6.53;2.88;;;21.30;99.90;;;;;;5148331;27;20723;-64
2021/09/27 10:42:54;;;;;;;6.40;2.42;;;21.50;99.90;;;;;;5148460;27;20158;-64
2021/09/27 10:45:25;;;;;;;5.38;2.45;;;21.60;99.90;;;;;;5142815;27;20273;-63
2021/09/27 10:47:54;;;;;;;5.90;2.78;;;21.60;99.90;;;;;;5148544;27;20150;-64
2021/09/27 10:50:28;;;;;;;6.22;2.35;;;21.40;99.90;;;;;;5148286;27;20150;-63
2021/09/27 10:52:53;;;;;;;4.18;2.35;;;21.30;99.90;;;;;;5148306;27;20523;-63
2021/09/27 10:55:33;;;;;;;4.28;2.40;;;21.20;99.90;;;;;;5147975;27;20181;-63
2021/09/27 10:58:01;;;;;;;10.18;2.17;;;21.10;99.90;;;;;;5147898;27;20154;-64
2021/09/27 11:00:47;;;;;;;9.57;2.58;;;21.30;99.90;;;;;;5147918;27;20176;-63
2021/09/27 11:03:21;;;;;;;6.25;2.10;;;21.30;99.90;;;;;;5147893;27;20173;-63
2021/09/27 11:05:54;;;;;;;6.15;2.13;;;21.30;99.90;;;;;;5147627;27;20185;-64
2021/09/27 11:08:32;;;;;;;5.70;1.98;;;21.20;99.90;;;;;;5147806;27;20138;-62
2021/09/27 11:10:58;;;;;;;6.15;3.10;;;21.30;99.90;;;;;;5147784;27;20670;-64
2021/09/27 11:13:39;;;;;;;4.97;2.85;;;21.40;99.90;;;;;;5147508;27;20172;-64
2021/09/27 11:16:27;;;;;;;8.05;2.97;;;21.10;99.90;;;;;;5147619;27;20177;-64
2021/09/27 11:19:04;;;;;;;4.07;2.63;;;20.90;99.90;;;;;;5131543;27;20246;-64
2021/09/27 11:21:35;;;;;;;5.72;2.78;;;20.90;99.90;;;;;;5147764;27;20542;-63
2021/09/27 11:24:24;;;;;;;3.72;2.42;;;20.70;99.90;;;;;;5147177;27;20173;-64
2021/09/27 11:26:59;;;;;;;14.50;2.63;;;20.60;99.90;;;;;;5147803;27;20156;-64
2021/09/27 11:29:37;;;;;;;3.10;2.35;;;20.50;99.90;;;;;;5147265;27;20173;-64
2021/09/27 11:32:13;;;;;;;4.75;2.45;;;20.50;99.90;;;;;;5147715;27;20150;-64
2021/09/27 11:34:56;;;;;;;5.35;2.80;;;20.30;99.90;;;;;;5147239;27;20173;-63
2021/09/27 11:37:27;;;;;;;8.57;3.20;;;20.20;99.90;;;;;;5147544;27;20149;-63
2021/09/27 11:40:10;;;;;;;8.18;3.10;;;20.20;99.90;;;;;;5147356;27;20193;-63
2021/09/27 11:43:08;;;;;;;6.70;2.75;;;20.10;99.90;;;;;;5147493;27;20154;-63
2021/09/27 11:45:41;;;;;;;5.65;3.22;;;20.10;99.90;;;;;;5147169;27;20257;-63
2021/09/27 11:48:30;;;;;;;8.20;3.20;;;20.00;99.90;;;;;;5147647;28;20139;-63
2021/09/27 11:51:04;;;;;;;3.45;2.78;;;19.70;99.90;;;;;;5147325;28;20157;-64
2021/09/27 11:53:41;;;;;;;6.03;3.30;;;19.50;99.90;;;;;;5147304;28;20161;-63
2021/09/27 11:56:29;;;;;;;5.57;3.28;;;19.40;99.90;;;;;;5147066;28;20173;-63
2021/09/27 11:59:13;;;;;;;5.25;3.17;;;19.40;99.90;;;;;;5146747;28;20225;-63
2021/09/27 12:02:06;;;;;;;6.68;3.20;;;19.40;99.90;;;;;;5147166;28;20154;-63
2021/09/27 12:04:56;;;;;;;5.70;2.90;;;19.40;99.90;;;;;;5118423;28;20209;-62
2021/09/27 12:07:29;;;;;;;3.40;2.67;;;19.20;99.90;;;;;;5147220;28;20150;-62
2021/09/27 12:10:04;;;;;;;5.60;2.95;;;19.10;99.90;;;;;;5146908;28;20160;-63
2021/09/27 12:12:40;;;;;;;3.33;3.03;;;19.10;99.90;;;;;;5147218;28;20153;-63
2021/09/27 12:15:07;;;;;;;4.22;2.97;;;19.00;99.90;;;;;;5146574;28;20181;-63
2021/09/27 12:17:37;;;;;;;6.65;3.13;;;19.00;99.90;;;;;;5128461;28;20173;-62
2021/09/27 12:20:03;;;;;;;4.20;2.25;;;18.90;99.90;;;;;;5128257;28;20190;-63
2021/09/27 12:22:33;;;;;;;6.13;2.88;;;18.80;99.90;;;;;;5147130;28;20162;-63
2021/09/27 12:25:06;;;;;;;4.90;2.22;;;18.80;99.90;;;;;;5146738;28;20218;-63
2021/09/27 12:27:31;;;;;;;2.55;2.35;;;18.90;99.90;;;;;;5131150;27;20150;-63
2021/09/27 12:30:19;;;;;;;7.18;2.50;;;18.80;99.90;;;;;;5150887;27;20173;-63
2021/09/27 12:33:07;;;;;;;7.75;2.47;;;18.80;99.90;;;;;;5132500;27;20163;-63
2021/09/27 12:35:37;;;;;;;7.70;2.40;;;18.70;99.90;;;;;;5150659;27;20194;-63
2021/09/27 12:38:03;;;;;;;6.57;2.60;;;18.60;99.90;;;;;;5150970;27;20599;-63
2021/09/27 12:40:50;;;;;;;3.83;1.92;;;18.60;99.90;;;;;;5150480;27;20166;-63
2021/09/27 12:43:22;;;;;;;3.47;2.28;;;18.50;99.90;;;;;;5131623;27;20166;-63
2021/09/27 12:45:53;;;;;;;2.75;2.13;;;18.60;99.90;;;;;;5150265;27;20222;-63
2021/09/27 12:48:28;;;;;;;3.58;2.30;;;18.50;99.90;;;;;;5150706;27;20150;-63
2021/09/27 12:51:19;;;;;;;1.90;1.73;;;18.50;99.90;;;;;;5150764;27;20185;-63
2021/09/27 12:54:08;;;;;;;4.22;2.00;;;18.30;99.90;;;;;;5150328;27;20166;-63
2021/09/27 12:56:34;;;;;;;2.17;1.75;;;18.20;99.90;;;;;;5150633;27;20220;-63
2021/09/27 12:59:12;;;;;;;4.30;2.40;;;18.20;99.90;;;;;;5150024;27;20222;-63
2021/09/27 13:01:51;;;;;;;7.43;2.40;;;18.20;99.90;;;;;;5150525;27;20150;-62
2021/09/27 13:04:48;;;;;;;6.80;1.92;;;17.90;99.90;;;;;;5149985;27;20214;-63
2021/09/27 13:07:16;;;;;;;8.25;1.80;;;17.60;99.90;;;;;;5150383;27;20610;-63
2021/09/27 13:10:09;;;;;;;5.00;1.77;;;17.20;99.90;;;;;;5150162;27;20154;-63
2021/09/27 13:12:40;;;;;;;8.02;1.40;;;17.00;99.90;;;;;;5150387;27;20165;-63
2021/09/27 13:15:17;;;;;;;8.48;1.35;;;16.70;99.90;;;;;;5149452;27;20555;-64
2021/09/27 13:18:05;;;;;;;8.45;1.00;;;16.30;99.90;;;;;;5150379;27;20146;-64
2021/09/27 13:20:50;;;;;;;2.83;1.00;;;16.20;99.90;;;;;;5150061;27;20158;-64
2021/09/27 13:23:22;;;;;;;6.03;1.08;;;15.90;99.90;;;;;;5150026;27;20158;-63
2021/09/27 13:26:00;;;;;;;7.82;1.20;;;15.80;99.90;;;;;;5149340;27;20219;-63
2021/09/27 13:28:37;;;;;;;5.55;1.10;;;15.80;99.90;;;;;;5149415;27;20181;-64